Slap Out, Illinois
Current Conditions -  °F | °C
As of 3:55 PM on Saturday 25 Oct 2014 (Local Time) from KSLO Reporting Station
Clear Clear  
Wind Chill: 80°   Ceiling: Unl
Heat Index: 80°   Visibility: 10mi
Dew Point: 54°   Wind: 5mph
Humidity: 41%   Direction: 300°WNW
Pressure: 30"   Gusts: NA
Location:  38.6075°N, 88.751°W
Report Text: KSLO 252055Z AUTO 30004KT 10SM CLR 27/12 A3000 RMK AO2 T02660123
Loading
Personal Weather Stations






























Interactive Weather Map
Tropical Storm Tracking
New forecast layout! Learn more

10-Day Weather Forecast

Advertisements
Track Severe Weather on mobile